createdAt,value
2018-06-13T00:00:41.510Z,88.57
2018-06-13T00:03:46.305Z,88.31
2018-06-13T00:06:50.716Z,88.59
2018-06-13T00:09:55.697Z,89.13
2018-06-13T00:12:59.971Z,89.17
2018-06-13T00:16:04.291Z,90.06
2018-06-13T00:19:08.901Z,89.88
2018-06-13T00:22:13.625Z,89.40
2018-06-13T00:25:18.059Z,88.72
2018-06-13T00:28:22.765Z,88.81
2018-06-13T00:31:27.032Z,89.33
2018-06-13T00:34:31.935Z,89.50
2018-06-13T00:37:36.327Z,88.71
2018-06-13T00:40:40.720Z,91.00
2018-06-13T00:43:45.146Z,90.78
2018-06-13T00:46:50.012Z,90.95
2018-06-13T00:49:54.268Z,90.41
2018-06-13T00:52:58.753Z,90.51
2018-06-13T00:56:39.281Z,89.77
2018-06-13T00:59:43.574Z,90.46
2018-06-13T01:02:47.873Z,90.26
2018-06-13T01:05:52.182Z,90.01
2018-06-13T01:08:56.442Z,89.93
2018-06-13T01:12:00.820Z,90.29
2018-06-13T01:15:05.123Z,91.67
2018-06-13T01:18:09.704Z,91.82
2018-06-13T01:21:14.502Z,92.04
2018-06-13T01:24:18.766Z,92.57
2018-06-13T01:27:23.289Z,91.95
2018-06-13T01:30:27.570Z,92.86
2018-06-13T01:33:32.560Z,92.58
2018-06-13T01:36:36.979Z,92.55
2018-06-13T01:39:41.242Z,92.85
2018-06-13T01:42:45.553Z,93.43
2018-06-13T01:45:49.841Z,93.59
2018-06-13T01:48:54.222Z,93.85
2018-06-13T01:51:58.784Z,94.19
2018-06-13T01:55:03.537Z,94.46
2018-06-13T01:58:07.850Z,94.73
2018-06-13T02:01:12.106Z,93.83
2018-06-13T02:04:16.349Z,93.71
2018-06-13T02:07:20.608Z,94.39
2018-06-13T02:10:24.964Z,94.17
2018-06-13T02:13:29.537Z,93.81
2018-06-13T02:16:33.832Z,93.08
2018-06-13T02:19:38.099Z,93.80
2018-06-13T02:22:42.407Z,93.98
2018-06-13T02:25:46.661Z,93.70
2018-06-13T02:28:50.915Z,94.16
2018-06-13T02:31:55.177Z,93.58
2018-06-13T02:34:59.481Z,94.34
2018-06-13T02:38:03.744Z,94.36
2018-06-13T02:41:08.011Z,94.39
2018-06-13T02:44:12.280Z,93.62
2018-06-13T02:47:16.543Z,93.49
2018-06-13T02:50:20.814Z,93.62
2018-06-13T02:53:25.073Z,93.88
2018-06-13T02:56:29.337Z,93.92
2018-06-13T02:59:34.805Z,94.04
2018-06-13T03:02:39.475Z,94.08
2018-06-13T03:05:43.724Z,94.16
2018-06-13T03:08:48.146Z,94.10
2018-06-13T03:11:52.404Z,94.78
2018-06-13T03:14:56.667Z,94.44
2018-06-13T03:18:00.941Z,94.14
2018-06-13T03:21:05.289Z,94.03
2018-06-13T03:24:09.549Z,94.97
2018-06-13T03:27:13.857Z,94.53
2018-06-13T03:30:18.129Z,94.04
2018-06-13T03:33:22.425Z,94.49
2018-06-13T03:36:27.078Z,95.10
2018-06-13T03:39:31.466Z,94.59
2018-06-13T03:42:35.730Z,94.38
2018-06-13T03:45:40.053Z,94.91
2018-06-13T03:48:45.376Z,94.52
2018-06-13T03:51:49.656Z,94.50
2018-06-13T03:54:54.114Z,94.36
2018-06-13T03:57:58.112Z,93.85
2018-06-13T04:01:02.740Z,93.91
2018-06-13T04:04:07.373Z,93.34
2018-06-13T04:07:11.686Z,92.45
2018-06-13T04:10:16.253Z,92.80
2018-06-13T04:13:20.525Z,93.14
2018-06-13T04:16:24.775Z,92.66
2018-06-13T04:19:29.037Z,92.08
2018-06-13T04:22:33.645Z,92.46
2018-06-13T04:25:37.933Z,92.29
2018-06-13T04:28:42.361Z,92.87
2018-06-13T04:31:46.617Z,92.27
2018-06-13T04:34:50.906Z,92.32
2018-06-13T04:37:55.170Z,92.81
2018-06-13T04:40:59.555Z,93.46
2018-06-13T04:44:04.111Z,93.14
2018-06-13T04:47:08.506Z,93.09
2018-06-13T04:50:12.910Z,93.68
2018-06-13T04:53:17.193Z,93.36
2018-06-13T04:56:21.531Z,93.58
2018-06-13T04:59:26.749Z,94.44
2018-06-13T05:02:31.233Z,94.15
2018-06-13T05:05:35.405Z,94.03
2018-06-13T05:08:39.705Z,93.93
2018-06-13T05:11:44.218Z,93.38
2018-06-13T05:14:48.765Z,93.40
2018-06-13T05:17:53.057Z,92.85
2018-06-13T05:20:57.449Z,93.07
2018-06-13T05:24:01.733Z,93.40
2018-06-13T05:27:06.138Z,93.77
2018-06-13T05:30:10.505Z,94.01
2018-06-13T05:33:14.765Z,94.10
2018-06-13T05:36:20.054Z,93.39
2018-06-13T05:39:24.332Z,93.54
2018-06-13T05:42:28.595Z,93.25
2018-06-13T05:45:33.025Z,93.67
2018-06-13T05:48:37.345Z,93.20
2018-06-13T05:51:41.663Z,93.43
2018-06-13T05:54:45.947Z,93.79
2018-06-13T05:57:50.417Z,93.59
2018-06-13T06:00:54.684Z,93.09
2018-06-13T06:03:59.114Z,93.63
2018-06-13T06:07:03.551Z,93.68
2018-06-13T06:10:07.928Z,93.58
2018-06-13T06:13:12.197Z,93.13
2018-06-13T06:16:16.470Z,93.55
2018-06-13T06:19:20.740Z,93.26
2018-06-13T06:22:25.001Z,93.33
2018-06-13T06:25:29.261Z,94.10
2018-06-13T06:28:33.541Z,93.41
2018-06-13T06:31:37.862Z,93.38
2018-06-13T06:34:42.125Z,93.18
2018-06-13T06:37:46.758Z,93.41
2018-06-13T06:40:51.107Z,93.12
2018-06-13T06:43:55.386Z,93.00
2018-06-13T06:46:59.657Z,92.30
2018-06-13T06:50:04.081Z,93.13
2018-06-13T06:53:08.357Z,92.47
2018-06-13T06:56:12.634Z,93.00
2018-06-13T06:59:16.947Z,92.56
2018-06-13T07:02:22.565Z,92.86
2018-06-13T07:05:26.817Z,92.50
2018-06-13T07:08:31.131Z,93.26
2018-06-13T07:11:35.413Z,93.11
2018-06-13T07:14:40.026Z,93.00
2018-06-13T07:17:44.392Z,92.45
2018-06-13T07:20:48.757Z,92.71
2018-06-13T07:23:53.186Z,92.65
2018-06-13T07:26:57.775Z,92.89
2018-06-13T07:30:02.041Z,92.92
2018-06-13T07:33:06.309Z,92.98
2018-06-13T07:36:11.176Z,92.11
2018-06-13T07:39:16.062Z,91.64
2018-06-13T07:42:20.337Z,91.44
2018-06-13T07:45:24.732Z,91.64
2018-06-13T07:48:29.068Z,92.54
2018-06-13T07:51:34.585Z,92.62
2018-06-13T07:54:38.882Z,93.62
2018-06-13T07:57:45.395Z,93.62
2018-06-13T08:00:51.062Z,93.59
2018-06-13T08:03:55.531Z,93.28
2018-06-13T08:06:59.939Z,93.06
2018-06-13T08:10:04.270Z,92.63
2018-06-13T08:13:08.667Z,91.71
2018-06-13T08:16:12.939Z,93.06
2018-06-13T08:19:17.762Z,92.05
2018-06-13T08:22:22.074Z,92.42
2018-06-13T08:25:26.393Z,93.30
2018-06-13T08:28:30.934Z,93.10
2018-06-13T08:31:35.221Z,92.37
2018-06-13T08:34:39.489Z,93.57
2018-06-13T08:37:43.791Z,92.92
2018-06-13T08:40:48.406Z,93.60
2018-06-13T08:43:52.689Z,94.03
2018-06-13T08:46:56.949Z,93.85
2018-06-13T08:50:01.250Z,93.80
2018-06-13T08:53:05.601Z,94.75
2018-06-13T08:56:09.998Z,94.19
2018-06-13T08:59:14.355Z,93.83
2018-06-13T09:02:18.381Z,94.00
2018-06-13T09:05:22.683Z,93.67
2018-06-13T09:08:27.368Z,94.32
2018-06-13T09:11:31.706Z,93.36
2018-06-13T09:14:36.101Z,93.41
2018-06-13T09:17:40.366Z,94.48
2018-06-13T09:20:44.645Z,94.22
2018-06-13T09:23:49.209Z,94.10
2018-06-13T09:26:53.494Z,93.57
2018-06-13T09:29:57.784Z,93.69
2018-06-13T09:33:02.065Z,93.93
2018-06-13T09:36:06.326Z,93.00
2018-06-13T09:39:10.589Z,93.38
2018-06-13T09:42:14.949Z,93.68
2018-06-13T09:45:19.402Z,94.15
2018-06-13T09:48:23.673Z,93.67
2018-06-13T09:51:27.963Z,93.79
2018-06-13T09:54:32.231Z,93.22
2018-06-13T09:57:37.492Z,94.04
2018-06-13T10:00:47.118Z,93.84
2018-06-13T10:03:51.408Z,94.00
2018-06-13T10:06:55.683Z,94.22
2018-06-13T10:10:00.033Z,93.90
2018-06-13T10:13:04.359Z,93.59
2018-06-13T10:16:08.595Z,93.91
2018-06-13T10:19:13.021Z,93.61
2018-06-13T10:22:17.375Z,94.58
2018-06-13T10:25:21.883Z,93.42
2018-06-13T10:28:26.156Z,93.93
2018-06-13T10:31:30.461Z,93.73
2018-06-13T10:34:35.272Z,93.73
2018-06-13T10:37:39.546Z,94.03
2018-06-13T10:40:44.049Z,93.85
2018-06-13T10:43:48.667Z,94.36
2018-06-13T10:46:52.992Z,94.16
2018-06-13T10:49:57.281Z,93.96
2018-06-13T10:53:01.561Z,94.32
2018-06-13T10:56:06.179Z,93.85
2018-06-13T10:59:10.445Z,93.27
2018-06-13T11:02:14.781Z,94.14
2018-06-13T11:05:19.109Z,93.43
2018-06-13T11:08:23.385Z,93.63
2018-06-13T11:11:27.666Z,94.17
2018-06-13T11:14:32.145Z,94.82
2018-06-13T11:17:36.593Z,94.24
2018-06-13T11:20:40.957Z,94.58
2018-06-13T11:23:45.312Z,95.18
2018-06-13T11:26:49.723Z,95.53
2018-06-13T11:29:53.986Z,94.31
2018-06-13T11:32:58.384Z,93.70
2018-06-13T11:36:02.705Z,93.08
2018-06-13T11:39:09.626Z,93.85
2018-06-13T11:42:13.990Z,94.37
2018-06-13T11:45:18.309Z,94.30
2018-06-13T11:48:22.631Z,94.08
2018-06-13T11:51:28.121Z,93.33
2018-06-13T11:54:32.525Z,92.88
2018-06-13T11:57:36.921Z,92.62
2018-06-13T12:00:41.366Z,92.70
2018-06-13T12:03:45.785Z,92.69
2018-06-13T12:06:50.174Z,91.91
2018-06-13T12:09:54.484Z,92.10
2018-06-13T12:12:58.843Z,92.16
2018-06-13T12:16:03.257Z,92.68
2018-06-13T12:19:07.527Z,92.79
2018-06-13T12:22:11.815Z,93.97
2018-06-13T12:25:16.090Z,93.47
2018-06-13T12:28:20.639Z,92.96
2018-06-13T12:31:24.979Z,92.48
2018-06-13T12:34:29.479Z,92.21
2018-06-13T12:37:34.978Z,92.38
2018-06-13T12:40:39.695Z,92.09
2018-06-13T12:43:43.982Z,91.43
2018-06-13T12:46:48.321Z,91.54
2018-06-13T12:49:52.736Z,91.79
2018-06-13T12:52:57.745Z,91.07
2018-06-13T12:56:02.199Z,91.65
2018-06-13T12:59:07.206Z,91.07
2018-06-13T13:02:11.816Z,90.90
2018-06-13T13:05:17.886Z,90.98
2018-06-13T13:08:22.489Z,90.79
2018-06-13T13:11:27.145Z,91.59
2018-06-13T13:14:31.391Z,92.00
2018-06-13T13:17:36.186Z,90.14
2018-06-13T13:20:41.063Z,90.66
2018-06-13T13:23:45.470Z,91.09
2018-06-13T13:26:50.216Z,91.01
2018-06-13T13:29:55.104Z,90.19
2018-06-13T13:33:00.011Z,91.61
2018-06-13T13:36:04.661Z,90.93
2018-06-13T13:39:10.597Z,91.00
2018-06-13T13:42:20.026Z,91.73
2018-06-13T13:45:24.649Z,92.47
2018-06-13T13:48:29.618Z,92.07
2018-06-13T13:51:35.273Z,92.11
2018-06-13T13:54:40.111Z,92.55
2018-06-13T13:57:45.015Z,91.63
2018-06-13T14:00:49.640Z,91.15
2018-06-13T14:03:54.145Z,90.92
2018-06-13T14:06:59.029Z,91.04
2018-06-13T14:10:03.706Z,91.14
2018-06-13T14:13:09.509Z,90.89
2018-06-13T14:16:13.865Z,90.25
2018-06-13T14:19:18.206Z,91.14
2018-06-13T14:22:22.974Z,90.72
2018-06-13T14:25:27.223Z,89.75
2018-06-13T14:28:31.553Z,90.71
2018-06-13T14:31:35.918Z,90.19
2018-06-13T14:34:40.228Z,91.21
2018-06-13T14:37:45.178Z,91.34
2018-06-13T14:40:49.453Z,90.65
2018-06-13T14:43:53.770Z,90.58
2018-06-13T14:46:58.073Z,90.89
2018-06-13T14:50:02.473Z,91.42
2018-06-13T14:53:06.757Z,91.43
2018-06-13T14:56:16.378Z,91.83
2018-06-13T14:59:20.778Z,91.53
2018-06-13T15:02:25.393Z,92.35
2018-06-13T15:05:29.698Z,91.92
2018-06-13T15:08:33.984Z,91.81
2018-06-13T15:11:40.203Z,91.34
2018-06-13T15:14:44.596Z,92.52
2018-06-13T15:17:48.913Z,92.71
2018-06-13T15:20:53.462Z,92.36
2018-06-13T15:23:57.843Z,91.96
2018-06-13T15:27:02.295Z,91.83
2018-06-13T15:30:07.738Z,91.66
2018-06-13T15:33:12.350Z,91.17
2018-06-13T15:36:17.754Z,89.84
2018-06-13T15:39:22.267Z,89.97
2018-06-13T15:42:26.613Z,89.62
2018-06-13T15:45:31.002Z,90.75
2018-06-13T15:48:35.522Z,91.10
2018-06-13T15:51:39.933Z,90.77
2018-06-13T15:54:45.917Z,91.40
2018-06-13T15:57:49.991Z,92.37
2018-06-13T16:00:54.421Z,91.36
2018-06-13T16:03:59.071Z,91.22
2018-06-13T16:07:03.472Z,92.16
2018-06-13T16:10:09.420Z,91.99
2018-06-13T16:13:14.171Z,92.42
2018-06-13T16:16:18.949Z,92.28
2018-06-13T16:19:23.347Z,93.62
2018-06-13T16:22:27.810Z,94.06
2018-06-13T16:25:32.491Z,93.60
2018-06-13T16:28:37.087Z,93.68
2018-06-13T16:31:41.778Z,92.75
2018-06-13T16:34:46.643Z,92.00
2018-06-13T16:43:13.797Z,92.49
2018-06-13T16:46:18.552Z,92.83
2018-06-13T16:49:23.141Z,92.27
2018-06-13T16:52:44.622Z,92.74
2018-06-13T16:55:49.313Z,92.42
2018-06-13T16:58:53.960Z,93.04
2018-06-13T17:01:59.008Z,92.34
2018-06-13T17:05:03.386Z,92.54
2018-06-13T17:08:07.758Z,92.44
2018-06-13T17:11:12.530Z,91.05
2018-06-13T17:14:16.789Z,91.12
2018-06-13T17:17:21.390Z,91.52
2018-06-13T17:20:25.709Z,90.83
2018-06-13T17:23:32.617Z,91.55
2018-06-13T17:26:38.545Z,91.79
2018-06-13T17:29:43.042Z,90.74
2018-06-13T17:32:47.431Z,91.30
2018-06-13T17:35:51.856Z,91.31
2018-06-13T17:38:57.984Z,91.09
2018-06-13T17:42:03.509Z,90.60
2018-06-13T17:45:09.173Z,91.19
2018-06-13T17:48:13.666Z,91.68
2018-06-13T17:51:18.188Z,91.17
2018-06-13T17:54:23.435Z,91.76
2018-06-13T17:57:27.854Z,91.92
2018-06-13T18:00:34.577Z,92.51
2018-06-13T18:03:39.041Z,92.06
2018-06-13T18:06:44.344Z,91.56
2018-06-13T18:09:48.997Z,91.83
2018-06-13T18:12:53.450Z,91.35
2018-06-13T18:15:57.997Z,91.08
2018-06-13T18:19:02.792Z,91.35
2018-06-13T18:22:07.554Z,91.14
2018-06-13T18:25:12.114Z,91.91
2018-06-13T18:28:17.527Z,91.71
2018-06-13T18:31:21.881Z,92.24
2018-06-13T18:34:26.477Z,91.89
2018-06-13T18:37:30.761Z,91.99
2018-06-13T18:40:35.034Z,92.06
2018-06-13T18:43:39.358Z,91.95
2018-06-13T18:46:43.615Z,92.47
2018-06-13T18:49:49.439Z,91.95
2018-06-13T18:52:54.048Z,91.76
2018-06-13T18:55:59.192Z,91.51
2018-06-13T18:59:03.581Z,91.68
2018-06-13T19:02:07.911Z,91.50
2018-06-13T19:05:12.254Z,91.28
2018-06-13T19:08:16.654Z,91.83
2018-06-13T19:11:20.973Z,91.43
2018-06-13T19:14:25.567Z,91.68
2018-06-13T19:17:30.067Z,91.49
2018-06-13T19:20:34.341Z,91.54
2018-06-13T19:23:38.877Z,91.72
2018-06-13T19:26:43.233Z,91.86
2018-06-13T19:29:47.504Z,91.52
2018-06-13T19:32:52.173Z,91.35
2018-06-13T19:35:56.729Z,91.42
2018-06-13T19:39:01.002Z,91.28
2018-06-13T19:42:05.960Z,91.70
2018-06-13T19:45:10.641Z,91.26
2018-06-13T19:48:20.254Z,91.60
2018-06-13T19:51:24.774Z,91.27
2018-06-13T20:04:23.469Z,91.22
2018-06-13T20:07:28.156Z,90.68
2018-06-13T20:10:33.104Z,90.28
2018-06-13T20:13:45.066Z,91.13
2018-06-13T20:16:55.313Z,90.15
2018-06-13T20:19:59.633Z,91.49
2018-06-13T20:23:04.526Z,90.98
2018-06-13T20:26:14.593Z,90.31
2018-06-13T20:29:24.097Z,90.29
2018-06-13T20:32:28.813Z,90.24
2018-06-13T20:35:33.178Z,89.92
2018-06-13T20:38:37.656Z,90.01
2018-06-13T20:41:44.303Z,90.74
2018-06-13T20:44:48.725Z,90.34
2018-06-13T20:47:53.214Z,90.64
2018-06-13T20:50:59.003Z,90.29
2018-06-13T20:54:04.362Z,89.80
2018-06-13T20:57:52.552Z,90.29
2018-06-13T21:01:01.710Z,89.94
2018-06-13T21:04:07.327Z,89.87
2018-06-13T21:07:11.601Z,89.54
2018-06-13T21:10:16.027Z,89.70
2018-06-13T21:13:20.346Z,89.64
2018-06-13T21:16:24.757Z,90.04
2018-06-13T21:19:29.104Z,89.54
2018-06-13T21:22:33.455Z,89.28
2018-06-13T21:25:37.802Z,89.44
2018-06-13T21:28:42.148Z,90.03
2018-06-13T21:31:46.601Z,89.68
2018-06-13T21:34:50.975Z,90.01
2018-06-13T21:37:55.239Z,90.03
2018-06-13T21:40:59.498Z,90.55
2018-06-13T21:44:03.767Z,89.77
2018-06-13T21:47:08.300Z,89.62
2018-06-13T21:50:13.246Z,90.51
2018-06-13T21:53:17.513Z,90.23
2018-06-13T21:56:21.794Z,90.34
2018-06-13T21:59:26.074Z,90.03
2018-06-13T22:02:30.337Z,89.68
2018-06-13T22:05:34.669Z,89.61
2018-06-13T22:08:39.270Z,89.62
2018-06-13T22:11:48.722Z,90.00
2018-06-13T22:14:53.326Z,89.96
2018-06-13T22:17:58.986Z,89.45
2018-06-13T22:21:03.025Z,89.83
2018-06-13T22:24:07.417Z,90.11
2018-06-13T22:27:11.934Z,90.73
2018-06-13T22:30:16.586Z,90.56
2018-06-13T22:33:21.322Z,90.57
2018-06-13T22:36:25.594Z,90.54
2018-06-13T22:39:29.887Z,90.24
2018-06-13T22:42:34.175Z,90.74
2018-06-13T22:45:38.860Z,90.00
2018-06-13T22:48:43.336Z,90.39
2018-06-13T22:51:47.605Z,91.59
2018-06-13T22:54:51.893Z,90.92
2018-06-13T22:57:56.608Z,90.60
2018-06-13T23:01:12.874Z,90.80
2018-06-13T23:04:17.141Z,90.67
2018-06-13T23:07:21.754Z,90.59
2018-06-13T23:10:26.425Z,91.13
2018-06-13T23:13:30.697Z,91.79
2018-06-13T23:16:35.917Z,92.93
2018-06-13T23:19:40.227Z,93.81
2018-06-13T23:22:45.407Z,93.21
2018-06-13T23:25:50.346Z,92.92
2018-06-13T23:28:54.622Z,93.22
2018-06-13T23:31:59.516Z,93.18
2018-06-13T23:35:03.805Z,93.38
2018-06-13T23:38:08.090Z,93.65
2018-06-13T23:41:12.456Z,93.55
2018-06-13T23:44:16.938Z,93.36
2018-06-13T23:47:21.369Z,92.94
2018-06-13T23:50:25.882Z,93.17
2018-06-13T23:53:30.437Z,93.29
2018-06-13T23:56:35.479Z,93.05
2018-06-13T23:59:40.054Z,92.61
